USA603 KPVU-KAUS
Flight info
| Callsign | USA603 |
|---|---|
| Flight time | N/A |
| Altitude | 35000 |
| Route | DITTI1 DAHLI KIMMR TXO LBB DILLO LAIKS4 |
| Aircraft | A321/M-SDE3FGHIRWY/LB1 |
Departure
| Time | 2026-05-06 18:18 |
|---|---|
| Airport | Provo Municipal Airport (KPVU) |
Arrival
| Time | N/A |
|---|---|
| Airport | Austin Bergstrom International Airport (KAUS) |
| Time | Latitude | Longitude | Altitude | Speed | Heading |
|---|---|---|---|---|---|
| 2026-05-06 18:16 | 40.21119 | -111.71565 | 4500 ft | 0 kts | 328° |
| 2026-05-06 18:17 | 40.21121 | -111.71567 | 4500 ft | 3 kts | 328° |
| 2026-05-06 18:17 | 40.21417 | -111.71828 | 4503 ft | 89 kts | 325° |
| 2026-05-06 18:17 | 40.21844 | -111.72207 | 4503 ft | 133 kts | 326° |
| 2026-05-06 18:18 | 40.22750 | -111.72980 | 4825 ft | 162 kts | 328° |
| 2026-05-06 18:18 | 40.23625 | -111.73852 | 5738 ft | 154 kts | 315° |
| 2026-05-06 18:18 | 40.24107 | -111.75117 | 6491 ft | 171 kts | 275° |
| 2026-05-06 18:18 | 40.23683 | -111.76629 | 6773 ft | 192 kts | 236° |
| 2026-05-06 18:19 | 40.22747 | -111.77989 | 6927 ft | 210 kts | 227° |
| 2026-05-06 18:19 | 40.21662 | -111.79393 | 7049 ft | 229 kts | 227° |
| 2026-05-06 18:19 | 40.20480 | -111.80958 | 7200 ft | 253 kts | 228° |
| 2026-05-06 18:19 | 40.19217 | -111.82711 | 7434 ft | 275 kts | 230° |
| 2026-05-06 18:20 | 40.17917 | -111.84597 | 7989 ft | 282 kts | 230° |
| 2026-05-06 18:20 | 40.16617 | -111.86548 | 8649 ft | 286 kts | 231° |
| 2026-05-06 18:20 | 40.15321 | -111.88536 | 8944 ft | 289 kts | 232° |
| 2026-05-06 18:20 | 40.13990 | -111.90517 | 9006 ft | 291 kts | 224° |
| 2026-05-06 18:21 | 40.12202 | -111.91738 | 9122 ft | 295 kts | 195° |
| 2026-05-06 18:21 | 40.10199 | -111.92353 | 9810 ft | 297 kts | 194° |
| 2026-05-06 18:21 | 40.08149 | -111.92921 | 10302 ft | 309 kts | 194° |
| 2026-05-06 18:21 | 40.05964 | -111.93511 | 10446 ft | 331 kts | 193° |
| 2026-05-06 18:22 | 40.03634 | -111.94124 | 10583 ft | 352 kts | 191° |
| 2026-05-06 18:22 | 40.01118 | -111.94309 | 10714 ft | 373 kts | 177° |
| 2026-05-06 18:22 | 39.98507 | -111.93686 | 10938 ft | 389 kts | 163° |
| 2026-05-06 18:22 | 39.95935 | -111.92638 | 11418 ft | 394 kts | 163° |
| 2026-05-06 18:23 | 39.93302 | -111.91581 | 11950 ft | 398 kts | 163° |
| 2026-05-06 18:23 | 39.90626 | -111.90584 | 12457 ft | 400 kts | 168° |
| 2026-05-06 18:23 | 39.87857 | -111.90139 | 12872 ft | 404 kts | 180° |
| 2026-05-06 18:23 | 39.85034 | -111.90382 | 13300 ft | 406 kts | 189° |
| 2026-05-06 18:24 | 39.82215 | -111.90882 | 13685 ft | 411 kts | 189° |
| 2026-05-06 18:24 | 39.79345 | -111.91280 | 14042 ft | 417 kts | 181° |
| 2026-05-06 18:24 | 39.76443 | -111.90885 | 14402 ft | 423 kts | 166° |
| 2026-05-06 18:24 | 39.73690 | -111.89527 | 14782 ft | 425 kts | 149° |
| 2026-05-06 18:25 | 39.71288 | -111.87316 | 15159 ft | 423 kts | 134° |
| 2026-05-06 18:25 | 39.69393 | -111.84408 | 15512 ft | 420 kts | 118° |
| 2026-05-06 18:25 | 39.68131 | -111.81023 | 15872 ft | 415 kts | 103° |
| 2026-05-06 18:25 | 39.67290 | -111.77490 | 16265 ft | 416 kts | 101° |
| 2026-05-06 18:26 | 39.66444 | -111.73884 | 16600 ft | 419 kts | 101° |
| 2026-05-06 18:26 | 39.65591 | -111.70264 | 16996 ft | 420 kts | 101° |
| 2026-05-06 18:26 | 39.64735 | -111.66622 | 17389 ft | 423 kts | 101° |
| 2026-05-06 18:26 | 39.63871 | -111.62955 | 17740 ft | 425 kts | 101° |
| 2026-05-06 18:27 | 39.63002 | -111.59285 | 18120 ft | 427 kts | 101° |
| 2026-05-06 18:27 | 39.62127 | -111.55583 | 18486 ft | 429 kts | 101° |